sensor_id;sensor_type;location;lat;lon;timestamp;temperature;humidity
6792;DHT22;3433;48.730;9.108;2023-12-20T00:00:01;7.10;99.90
6792;DHT22;3433;48.730;9.108;2023-12-20T00:02:48;7.10;99.90
6792;DHT22;3433;48.730;9.108;2023-12-20T00:05:35;7.20;99.90
6792;DHT22;3433;48.730;9.108;2023-12-20T00:08:28;7.20;99.90
6792;DHT22;3433;48.730;9.108;2023-12-20T00:11:15;7.30;99.90
6792;DHT22;3433;48.730;9.108;2023-12-20T00:14:02;7.30;99.90
6792;DHT22;3433;48.730;9.108;2023-12-20T00:16:49;7.20;99.90
6792;DHT22;3433;48.730;9.108;2023-12-20T00:19:37;7.30;99.90
6792;DHT22;3433;48.730;9.108;2023-12-20T00:22:24;7.30;99.90
6792;DHT22;3433;48.730;9.108;2023-12-20T00:25:12;7.20;99.90
6792;DHT22;3433;48.730;9.108;2023-12-20T00:28:00;7.20;99.90
6792;DHT22;3433;48.730;9.108;2023-12-20T00:30:48;7.20;99.90
6792;DHT22;3433;48.730;9.108;2023-12-20T00:33:35;7.30;99.90
6792;DHT22;3433;48.730;9.108;2023-12-20T00:36:22;7.30;99.90
6792;DHT22;3433;48.730;9.108;2023-12-20T00:39:09;7.30;99.90
6792;DHT22;3433;48.730;9.108;2023-12-20T00:41:58;7.40;99.90
6792;DHT22;3433;48.730;9.108;2023-12-20T00:44:45;7.50;99.90
6792;DHT22;3433;48.730;9.108;2023-12-20T00:47:32;7.50;99.90
6792;DHT22;3433;48.730;9.108;2023-12-20T00:50:19;7.50;99.90
6792;DHT22;3433;48.730;9.108;2023-12-20T00:53:07;7.40;99.90
6792;DHT22;3433;48.730;9.108;2023-12-20T00:55:54;7.40;99.90
6792;DHT22;3433;48.730;9.108;2023-12-20T00:58:43;7.40;99.90
6792;DHT22;3433;48.730;9.108;2023-12-20T01:01:30;7.40;99.90
6792;DHT22;3433;48.730;9.108;2023-12-20T01:04:19;7.30;99.90
6792;DHT22;3433;48.730;9.108;2023-12-20T01:07:06;7.20;99.90
6792;DHT22;3433;48.730;9.108;2023-12-20T01:09:53;7.30;99.90
6792;DHT22;3433;48.730;9.108;2023-12-20T01:12:40;7.40;99.90
6792;DHT22;3433;48.730;9.108;2023-12-20T01:15:29;7.40;99.90
6792;DHT22;3433;48.730;9.108;2023-12-20T01:18:16;7.40;99.90
6792;DHT22;3433;48.730;9.108;2023-12-20T01:21:03;7.40;99.90
6792;DHT22;3433;48.730;9.108;2023-12-20T01:23:50;7.40;99.90
6792;DHT22;3433;48.730;9.108;2023-12-20T01:26:38;7.40;99.90
6792;DHT22;3433;48.730;9.108;2023-12-20T01:29:25;7.40;99.90
6792;DHT22;3433;48.730;9.108;2023-12-20T01:32:13;7.50;99.90
6792;DHT22;3433;48.730;9.108;2023-12-20T01:35:01;7.50;99.90
6792;DHT22;3433;48.730;9.108;2023-12-20T01:37:48;7.60;99.90
6792;DHT22;3433;48.730;9.108;2023-12-20T01:40:35;7.60;99.90
6792;DHT22;3433;48.730;9.108;2023-12-20T01:43:22;7.60;99.90
6792;DHT22;3433;48.730;9.108;2023-12-20T01:46:10;7.60;99.90
6792;DHT22;3433;48.730;9.108;2023-12-20T01:48:59;7.60;99.90
6792;DHT22;3433;48.730;9.108;2023-12-20T01:51:46;7.60;99.90
6792;DHT22;3433;48.730;9.108;2023-12-20T01:54:34;7.50;99.90
6792;DHT22;3433;48.730;9.108;2023-12-20T01:57:22;7.40;99.90
6792;DHT22;3433;48.730;9.108;2023-12-20T02:00:11;7.40;99.90
6792;DHT22;3433;48.730;9.108;2023-12-20T02:03:01;7.40;99.90
6792;DHT22;3433;48.730;9.108;2023-12-20T02:05:50;7.50;99.90
6792;DHT22;3433;48.730;9.108;2023-12-20T02:08:37;7.40;99.90
6792;DHT22;3433;48.730;9.108;2023-12-20T02:11:25;7.40;99.90
6792;DHT22;3433;48.730;9.108;2023-12-20T02:14:12;7.40;99.90
6792;DHT22;3433;48.730;9.108;2023-12-20T02:17:00;7.40;99.90
6792;DHT22;3433;48.730;9.108;2023-12-20T02:19:47;7.40;99.90
6792;DHT22;3433;48.730;9.108;2023-12-20T02:22:35;7.40;99.90
6792;DHT22;3433;48.730;9.108;2023-12-20T02:25:23;7.50;99.90
6792;DHT22;3433;48.730;9.108;2023-12-20T02:28:10;7.50;99.90
6792;DHT22;3433;48.730;9.108;2023-12-20T02:30:57;7.50;99.90
6792;DHT22;3433;48.730;9.108;2023-12-20T02:33:44;7.50;99.90
6792;DHT22;3433;48.730;9.108;2023-12-20T02:36:31;7.50;99.90
6792;DHT22;3433;48.730;9.108;2023-12-20T02:39:21;7.40;99.90
6792;DHT22;3433;48.730;9.108;2023-12-20T02:42:09;7.40;99.90
6792;DHT22;3433;48.730;9.108;2023-12-20T02:44:56;7.50;99.90
6792;DHT22;3433;48.730;9.108;2023-12-20T02:47:43;7.50;99.90
6792;DHT22;3433;48.730;9.108;2023-12-20T02:50:30;7.50;99.90
6792;DHT22;3433;48.730;9.108;2023-12-20T02:53:17;7.40;99.90
6792;DHT22;3433;48.730;9.108;2023-12-20T02:56:06;7.50;99.90
6792;DHT22;3433;48.730;9.108;2023-12-20T02:58:53;7.40;99.90
6792;DHT22;3433;48.730;9.108;2023-12-20T03:01:42;7.50;99.90
6792;DHT22;3433;48.730;9.108;2023-12-20T03:04:30;7.50;99.90
6792;DHT22;3433;48.730;9.108;2023-12-20T03:07:17;7.60;99.90
6792;DHT22;3433;48.730;9.108;2023-12-20T03:10:05;7.60;99.90
6792;DHT22;3433;48.730;9.108;2023-12-20T03:12:54;7.60;99.90
6792;DHT22;3433;48.730;9.108;2023-12-20T03:15:42;7.70;99.90
6792;DHT22;3433;48.730;9.108;2023-12-20T03:18:29;7.70;99.90
6792;DHT22;3433;48.730;9.108;2023-12-20T03:21:16;7.70;99.90
6792;DHT22;3433;48.730;9.108;2023-12-20T03:24:04;7.70;99.90
6792;DHT22;3433;48.730;9.108;2023-12-20T03:26:51;7.70;99.90
6792;DHT22;3433;48.730;9.108;2023-12-20T03:29:40;7.70;99.90
6792;DHT22;3433;48.730;9.108;2023-12-20T03:32:27;7.70;99.90
6792;DHT22;3433;48.730;9.108;2023-12-20T03:35:14;7.60;99.90
6792;DHT22;3433;48.730;9.108;2023-12-20T03:38:02;7.60;99.90
6792;DHT22;3433;48.730;9.108;2023-12-20T03:40:49;7.60;99.90
6792;DHT22;3433;48.730;9.108;2023-12-20T03:43:36;7.50;99.90
6792;DHT22;3433;48.730;9.108;2023-12-20T03:46:25;7.50;99.90
6792;DHT22;3433;48.730;9.108;2023-12-20T03:49:12;7.40;99.90
6792;DHT22;3433;48.730;9.108;2023-12-20T03:51:59;7.50;99.90
6792;DHT22;3433;48.730;9.108;2023-12-20T03:54:46;7.50;99.90
6792;DHT22;3433;48.730;9.108;2023-12-20T03:57:34;7.50;99.90
6792;DHT22;3433;48.730;9.108;2023-12-20T04:00:21;7.50;99.90
6792;DHT22;3433;48.730;9.108;2023-12-20T04:03:09;7.40;99.90
6792;DHT22;3433;48.730;9.108;2023-12-20T04:05:58;7.50;99.90
6792;DHT22;3433;48.730;9.108;2023-12-20T04:08:45;7.50;99.90
6792;DHT22;3433;48.730;9.108;2023-12-20T04:11:32;7.40;99.90
6792;DHT22;3433;48.730;9.108;2023-12-20T04:14:20;7.40;99.90
6792;DHT22;3433;48.730;9.108;2023-12-20T04:17:07;7.30;99.90
6792;DHT22;3433;48.730;9.108;2023-12-20T04:19:55;7.30;99.90
6792;DHT22;3433;48.730;9.108;2023-12-20T04:22:43;7.40;99.90
6792;DHT22;3433;48.730;9.108;2023-12-20T04:25:30;7.40;99.90
6792;DHT22;3433;48.730;9.108;2023-12-20T04:28:17;7.40;99.90
6792;DHT22;3433;48.730;9.108;2023-12-20T04:31:04;7.40;99.90
6792;DHT22;3433;48.730;9.108;2023-12-20T04:33:51;7.40;99.90
6792;DHT22;3433;48.730;9.108;2023-12-20T04:36:40;7.40;99.90
6792;DHT22;3433;48.730;9.108;2023-12-20T04:39:27;7.40;99.90
6792;DHT22;3433;48.730;9.108;2023-12-20T04:42:14;7.30;99.90
6792;DHT22;3433;48.730;9.108;2023-12-20T04:45:01;7.40;99.90
6792;DHT22;3433;48.730;9.108;2023-12-20T04:47:48;7.40;99.90
6792;DHT22;3433;48.730;9.108;2023-12-20T04:50:36;7.40;99.90
6792;DHT22;3433;48.730;9.108;2023-12-20T04:53:24;7.40;99.90
6792;DHT22;3433;48.730;9.108;2023-12-20T04:56:12;7.30;99.90
6792;DHT22;3433;48.730;9.108;2023-12-20T04:58:59;7.40;99.90
6792;DHT22;3433;48.730;9.108;2023-12-20T05:01:46;7.30;99.90
6792;DHT22;3433;48.730;9.108;2023-12-20T05:04:33;7.20;99.90
6792;DHT22;3433;48.730;9.108;2023-12-20T05:07:20;7.30;99.90
6792;DHT22;3433;48.730;9.108;2023-12-20T05:10:09;7.20;99.90
6792;DHT22;3433;48.730;9.108;2023-12-20T05:12:56;7.30;99.90
6792;DHT22;3433;48.730;9.108;2023-12-20T05:15:43;7.30;99.90
6792;DHT22;3433;48.730;9.108;2023-12-20T05:18:31;7.30;99.90
6792;DHT22;3433;48.730;9.108;2023-12-20T05:21:18;7.30;99.90
6792;DHT22;3433;48.730;9.108;2023-12-20T05:24:05;7.30;99.90
6792;DHT22;3433;48.730;9.108;2023-12-20T05:26:54;7.30;99.90
6792;DHT22;3433;48.730;9.108;2023-12-20T05:29:41;7.20;99.90
6792;DHT22;3433;48.730;9.108;2023-12-20T05:32:28;7.30;99.90
6792;DHT22;3433;48.730;9.108;2023-12-20T05:35:16;7.20;99.90
6792;DHT22;3433;48.730;9.108;2023-12-20T05:38:03;7.10;99.90
6792;DHT22;3433;48.730;9.108;2023-12-20T05:40:50;7.20;99.90
6792;DHT22;3433;48.730;9.108;2023-12-20T05:43:39;7.20;99.90
6792;DHT22;3433;48.730;9.108;2023-12-20T05:46:26;7.20;99.90
6792;DHT22;3433;48.730;9.108;2023-12-20T05:49:13;7.20;99.90
6792;DHT22;3433;48.730;9.108;2023-12-20T05:52:00;7.20;99.90
6792;DHT22;3433;48.730;9.108;2023-12-20T05:54:48;7.20;99.90
6792;DHT22;3433;48.730;9.108;2023-12-20T05:57:35;7.20;99.90
6792;DHT22;3433;48.730;9.108;2023-12-20T06:00:23;7.20;99.90
6792;DHT22;3433;48.730;9.108;2023-12-20T06:03:11;7.20;99.90
6792;DHT22;3433;48.730;9.108;2023-12-20T06:05:58;7.20;99.90
6792;DHT22;3433;48.730;9.108;2023-12-20T06:08:46;7.30;99.90
6792;DHT22;3433;48.730;9.108;2023-12-20T06:11:33;7.30;99.90
6792;DHT22;3433;48.730;9.108;2023-12-20T06:14:20;7.20;99.90
6792;DHT22;3433;48.730;9.108;2023-12-20T06:17:09;7.30;99.90
6792;DHT22;3433;48.730;9.108;2023-12-20T06:19:56;7.30;99.90
6792;DHT22;3433;48.730;9.108;2023-12-20T06:22:43;7.30;99.90
6792;DHT22;3433;48.730;9.108;2023-12-20T06:25:30;7.30;99.90
6792;DHT22;3433;48.730;9.108;2023-12-20T06:28:17;7.30;99.90
6792;DHT22;3433;48.730;9.108;2023-12-20T06:31:05;7.30;99.90
6792;DHT22;3433;48.730;9.108;2023-12-20T06:33:53;7.30;99.90
6792;DHT22;3433;48.730;9.108;2023-12-20T06:36:43;7.30;99.90
6792;DHT22;3433;48.730;9.108;2023-12-20T06:39:30;7.30;99.90
6792;DHT22;3433;48.730;9.108;2023-12-20T06:42:19;7.30;99.90
6792;DHT22;3433;48.730;9.108;2023-12-20T06:45:07;7.30;99.90
6792;DHT22;3433;48.730;9.108;2023-12-20T06:47:54;7.20;99.90
6792;DHT22;3433;48.730;9.108;2023-12-20T06:50:43;7.20;99.90
6792;DHT22;3433;48.730;9.108;2023-12-20T06:53:30;7.20;99.90
6792;DHT22;3433;48.730;9.108;2023-12-20T06:56:17;7.30;99.90
6792;DHT22;3433;48.730;9.108;2023-12-20T06:59:04;7.30;99.90
6792;DHT22;3433;48.730;9.108;2023-12-20T07:01:52;7.30;99.90
6792;DHT22;3433;48.730;9.108;2023-12-20T07:04:40;7.30;99.90
6792;DHT22;3433;48.730;9.108;2023-12-20T07:07:29;7.40;99.90
6792;DHT22;3433;48.730;9.108;2023-12-20T07:10:16;7.40;99.90
6792;DHT22;3433;48.730;9.108;2023-12-20T07:13:05;7.40;99.90
6792;DHT22;3433;48.730;9.108;2023-12-20T07:15:52;7.40;99.90
6792;DHT22;3433;48.730;9.108;2023-12-20T07:18:39;7.50;99.90
6792;DHT22;3433;48.730;9.108;2023-12-20T07:21:27;7.50;99.90
6792;DHT22;3433;48.730;9.108;2023-12-20T07:24:15;7.50;99.90
6792;DHT22;3433;48.730;9.108;2023-12-20T07:27:03;7.50;99.90
6792;DHT22;3433;48.730;9.108;2023-12-20T07:29:50;7.50;99.90
6792;DHT22;3433;48.730;9.108;2023-12-20T07:32:37;7.50;99.90
6792;DHT22;3433;48.730;9.108;2023-12-20T07:35:25;7.40;99.90
6792;DHT22;3433;48.730;9.108;2023-12-20T07:38:12;7.30;99.90
6792;DHT22;3433;48.730;9.108;2023-12-20T07:41:00;7.20;99.90
6792;DHT22;3433;48.730;9.108;2023-12-20T07:43:48;7.20;99.90
6792;DHT22;3433;48.730;9.108;2023-12-20T07:46:35;7.30;99.90
6792;DHT22;3433;48.730;9.108;2023-12-20T07:49:22;7.10;99.90
6792;DHT22;3433;48.730;9.108;2023-12-20T07:52:09;7.00;99.90
6792;DHT22;3433;48.730;9.108;2023-12-20T07:54:56;7.00;99.90
6792;DHT22;3433;48.730;9.108;2023-12-20T07:57:45;7.10;99.90
6792;DHT22;3433;48.730;9.108;2023-12-20T08:00:32;7.10;99.90
6792;DHT22;3433;48.730;9.108;2023-12-20T08:03:19;7.10;99.90
6792;DHT22;3433;48.730;9.108;2023-12-20T08:06:06;7.10;99.90
6792;DHT22;3433;48.730;9.108;2023-12-20T08:08:53;7.10;99.90
6792;DHT22;3433;48.730;9.108;2023-12-20T08:11:44;7.00;99.90
6792;DHT22;3433;48.730;9.108;2023-12-20T08:14:33;6.90;99.90
6792;DHT22;3433;48.730;9.108;2023-12-20T08:17:20;7.10;99.90
6792;DHT22;3433;48.730;9.108;2023-12-20T08:20:09;7.10;99.90
6792;DHT22;3433;48.730;9.108;2023-12-20T08:22:56;7.10;99.90
6792;DHT22;3433;48.730;9.108;2023-12-20T08:25:43;7.10;99.90
6792;DHT22;3433;48.730;9.108;2023-12-20T08:28:31;7.20;99.90
6792;DHT22;3433;48.730;9.108;2023-12-20T08:31:20;7.10;99.90
6792;DHT22;3433;48.730;9.108;2023-12-20T08:34:07;7.10;99.90
6792;DHT22;3433;48.730;9.108;2023-12-20T08:36:55;7.20;99.90
6792;DHT22;3433;48.730;9.108;2023-12-20T08:39:42;7.10;99.90
6792;DHT22;3433;48.730;9.108;2023-12-20T08:42:30;7.10;99.90
6792;DHT22;3433;48.730;9.108;2023-12-20T08:45:17;7.10;99.90
6792;DHT22;3433;48.730;9.108;2023-12-20T08:48:07;7.20;99.90
6792;DHT22;3433;48.730;9.108;2023-12-20T08:50:54;7.20;99.90
6792;DHT22;3433;48.730;9.108;2023-12-20T08:53:41;7.10;99.90
6792;DHT22;3433;48.730;9.108;2023-12-20T08:56:30;7.00;99.90
6792;DHT22;3433;48.730;9.108;2023-12-20T08:59:18;7.10;99.90
6792;DHT22;3433;48.730;9.108;2023-12-20T09:02:05;7.10;99.90
6792;DHT22;3433;48.730;9.108;2023-12-20T09:04:54;7.00;99.90
6792;DHT22;3433;48.730;9.108;2023-12-20T09:07:41;7.00;99.90
6792;DHT22;3433;48.730;9.108;2023-12-20T09:10:29;7.00;99.90
6792;DHT22;3433;48.730;9.108;2023-12-20T09:13:16;7.10;99.90
6792;DHT22;3433;48.730;9.108;2023-12-20T09:16:04;7.10;99.90
6792;DHT22;3433;48.730;9.108;2023-12-20T09:18:51;7.20;99.90
6792;DHT22;3433;48.730;9.108;2023-12-20T09:21:40;7.20;99.90
6792;DHT22;3433;48.730;9.108;2023-12-20T09:24:27;7.20;99.90
6792;DHT22;3433;48.730;9.108;2023-12-20T09:27:14;7.30;99.90
6792;DHT22;3433;48.730;9.108;2023-12-20T09:30:02;7.40;99.90
6792;DHT22;3433;48.730;9.108;2023-12-20T09:32:49;7.60;99.90
6792;DHT22;3433;48.730;9.108;2023-12-20T09:35:37;7.80;99.90
6792;DHT22;3433;48.730;9.108;2023-12-20T09:38:25;7.90;99.90
6792;DHT22;3433;48.730;9.108;2023-12-20T09:41:12;8.10;99.90
6792;DHT22;3433;48.730;9.108;2023-12-20T09:44:02;8.00;99.90
6792;DHT22;3433;48.730;9.108;2023-12-20T09:46:50;8.30;99.90
6792;DHT22;3433;48.730;9.108;2023-12-20T09:49:37;8.60;99.90
6792;DHT22;3433;48.730;9.108;2023-12-20T09:52:25;8.80;99.90
6792;DHT22;3433;48.730;9.108;2023-12-20T09:55:14;8.90;99.90
6792;DHT22;3433;48.730;9.108;2023-12-20T09:58:02;8.80;99.90
6792;DHT22;3433;48.730;9.108;2023-12-20T10:00:50;9.00;99.90
6792;DHT22;3433;48.730;9.108;2023-12-20T10:03:39;9.00;99.90
6792;DHT22;3433;48.730;9.108;2023-12-20T10:06:28;8.90;99.90
6792;DHT22;3433;48.730;9.108;2023-12-20T10:09:15;9.00;99.90
6792;DHT22;3433;48.730;9.108;2023-12-20T10:12:05;9.00;99.90
6792;DHT22;3433;48.730;9.108;2023-12-20T10:14:53;8.90;99.90
6792;DHT22;3433;48.730;9.108;2023-12-20T10:17:40;9.00;99.90
6792;DHT22;3433;48.730;9.108;2023-12-20T10:20:27;8.90;99.90
6792;DHT22;3433;48.730;9.108;2023-12-20T10:23:16;8.80;99.90
6792;DHT22;3433;48.730;9.108;2023-12-20T10:26:04;8.80;99.90
6792;DHT22;3433;48.730;9.108;2023-12-20T10:28:53;8.70;99.90
6792;DHT22;3433;48.730;9.108;2023-12-20T10:31:40;8.60;99.90
6792;DHT22;3433;48.730;9.108;2023-12-20T10:34:28;8.60;99.90
6792;DHT22;3433;48.730;9.108;2023-12-20T10:37:15;8.30;99.90
6792;DHT22;3433;48.730;9.108;2023-12-20T10:40:04;8.30;99.90
6792;DHT22;3433;48.730;9.108;2023-12-20T10:42:52;8.30;99.90
6792;DHT22;3433;48.730;9.108;2023-12-20T10:45:41;8.20;99.90
6792;DHT22;3433;48.730;9.108;2023-12-20T10:48:30;8.20;99.90
6792;DHT22;3433;48.730;9.108;2023-12-20T10:51:18;8.20;99.90
6792;DHT22;3433;48.730;9.108;2023-12-20T10:54:07;8.10;99.90
6792;DHT22;3433;48.730;9.108;2023-12-20T10:56:55;8.10;99.90
6792;DHT22;3433;48.730;9.108;2023-12-20T10:59:45;8.10;99.90
6792;DHT22;3433;48.730;9.108;2023-12-20T11:02:39;8.10;99.90
6792;DHT22;3433;48.730;9.108;2023-12-20T11:05:36;8.00;99.90
6792;DHT22;3433;48.730;9.108;2023-12-20T11:08:32;8.00;99.90
6792;DHT22;3433;48.730;9.108;2023-12-20T11:11:23;7.90;99.90
6792;DHT22;3433;48.730;9.108;2023-12-20T11:14:17;7.90;99.90
6792;DHT22;3433;48.730;9.108;2023-12-20T11:17:07;7.80;99.90
6792;DHT22;3433;48.730;9.108;2023-12-20T11:20:09;7.80;99.90
6792;DHT22;3433;48.730;9.108;2023-12-20T11:22:59;7.70;99.90
6792;DHT22;3433;48.730;9.108;2023-12-20T11:25:48;7.60;99.90
6792;DHT22;3433;48.730;9.108;2023-12-20T11:28:35;7.60;99.90
6792;DHT22;3433;48.730;9.108;2023-12-20T11:31:22;7.60;99.90
6792;DHT22;3433;48.730;9.108;2023-12-20T11:34:13;7.50;99.90
6792;DHT22;3433;48.730;9.108;2023-12-20T11:37:02;7.60;99.90
6792;DHT22;3433;48.730;9.108;2023-12-20T11:39:55;7.30;99.90
6792;DHT22;3433;48.730;9.108;2023-12-20T11:42:43;7.40;99.90
6792;DHT22;3433;48.730;9.108;2023-12-20T11:45:31;7.30;99.90
6792;DHT22;3433;48.730;9.108;2023-12-20T11:48:18;7.30;99.90
6792;DHT22;3433;48.730;9.108;2023-12-20T11:51:10;7.20;99.90
6792;DHT22;3433;48.730;9.108;2023-12-20T11:53:58;7.10;99.90
6792;DHT22;3433;48.730;9.108;2023-12-20T11:56:46;7.20;99.90
6792;DHT22;3433;48.730;9.108;2023-12-20T11:59:34;7.10;99.90
6792;DHT22;3433;48.730;9.108;2023-12-20T12:02:22;7.10;99.90
6792;DHT22;3433;48.730;9.108;2023-12-20T12:05:09;7.00;99.90
6792;DHT22;3433;48.730;9.108;2023-12-20T12:07:56;7.10;99.90
6792;DHT22;3433;48.730;9.108;2023-12-20T12:10:45;7.20;99.90
6792;DHT22;3433;48.730;9.108;2023-12-20T12:13:32;7.20;99.90
6792;DHT22;3433;48.730;9.108;2023-12-20T12:16:20;7.20;99.90
6792;DHT22;3433;48.730;9.108;2023-12-20T12:19:07;7.30;99.90
6792;DHT22;3433;48.730;9.108;2023-12-20T12:22:04;7.40;99.90
6792;DHT22;3433;48.730;9.108;2023-12-20T12:24:52;7.50;99.90
6792;DHT22;3433;48.730;9.108;2023-12-20T12:27:41;7.50;99.90
6792;DHT22;3433;48.730;9.108;2023-12-20T12:30:28;7.60;99.90
6792;DHT22;3433;48.730;9.108;2023-12-20T12:33:17;7.40;99.90
6792;DHT22;3433;48.730;9.108;2023-12-20T12:36:05;7.50;99.90
6792;DHT22;3433;48.730;9.108;2023-12-20T12:38:53;7.60;99.90
6792;DHT22;3433;48.730;9.108;2023-12-20T12:41:40;7.50;99.90
6792;DHT22;3433;48.730;9.108;2023-12-20T12:44:28;7.60;99.90
6792;DHT22;3433;48.730;9.108;2023-12-20T12:47:15;7.60;99.90
6792;DHT22;3433;48.730;9.108;2023-12-20T12:50:03;7.40;99.90
6792;DHT22;3433;48.730;9.108;2023-12-20T12:52:50;7.50;99.90
6792;DHT22;3433;48.730;9.108;2023-12-20T12:55:37;7.40;99.90
6792;DHT22;3433;48.730;9.108;2023-12-20T12:58:24;7.50;99.90
6792;DHT22;3433;48.730;9.108;2023-12-20T13:01:13;7.60;99.90
6792;DHT22;3433;48.730;9.108;2023-12-20T13:04:01;7.50;99.90
6792;DHT22;3433;48.730;9.108;2023-12-20T13:06:49;7.50;99.90
6792;DHT22;3433;48.730;9.108;2023-12-20T13:09:37;7.40;99.90
6792;DHT22;3433;48.730;9.108;2023-12-20T13:12:24;7.60;99.90
6792;DHT22;3433;48.730;9.108;2023-12-20T13:15:11;7.70;99.90
6792;DHT22;3433;48.730;9.108;2023-12-20T13:18:00;7.70;99.90
6792;DHT22;3433;48.730;9.108;2023-12-20T13:20:48;7.70;99.90
6792;DHT22;3433;48.730;9.108;2023-12-20T13:23:35;7.60;99.90
6792;DHT22;3433;48.730;9.108;2023-12-20T13:26:22;7.70;99.90
6792;DHT22;3433;48.730;9.108;2023-12-20T13:29:10;7.50;99.90
6792;DHT22;3433;48.730;9.108;2023-12-20T13:31:57;7.50;99.90
6792;DHT22;3433;48.730;9.108;2023-12-20T13:34:46;7.40;99.90
6792;DHT22;3433;48.730;9.108;2023-12-20T13:37:34;7.40;99.90
6792;DHT22;3433;48.730;9.108;2023-12-20T13:40:21;7.40;99.90
6792;DHT22;3433;48.730;9.108;2023-12-20T13:43:08;7.50;99.90
6792;DHT22;3433;48.730;9.108;2023-12-20T13:45:56;7.40;99.90
6792;DHT22;3433;48.730;9.108;2023-12-20T13:48:43;7.40;99.90
6792;DHT22;3433;48.730;9.108;2023-12-20T13:51:32;7.40;99.90
6792;DHT22;3433;48.730;9.108;2023-12-20T13:54:19;7.50;99.90
6792;DHT22;3433;48.730;9.108;2023-12-20T13:57:08;7.30;99.90
6792;DHT22;3433;48.730;9.108;2023-12-20T13:59:55;7.40;99.90
6792;DHT22;3433;48.730;9.108;2023-12-20T14:02:43;7.50;99.90
6792;DHT22;3433;48.730;9.108;2023-12-20T14:05:30;7.40;99.90
6792;DHT22;3433;48.730;9.108;2023-12-20T14:08:19;7.30;99.90
6792;DHT22;3433;48.730;9.108;2023-12-20T14:11:06;7.40;99.90
6792;DHT22;3433;48.730;9.108;2023-12-20T14:13:53;7.50;99.90
6792;DHT22;3433;48.730;9.108;2023-12-20T14:16:43;7.50;99.90
6792;DHT22;3433;48.730;9.108;2023-12-20T14:19:30;7.50;99.90
6792;DHT22;3433;48.730;9.108;2023-12-20T14:22:18;7.40;99.90
6792;DHT22;3433;48.730;9.108;2023-12-20T14:25:07;7.50;99.90
6792;DHT22;3433;48.730;9.108;2023-12-20T14:27:57;7.40;99.90
6792;DHT22;3433;48.730;9.108;2023-12-20T14:30:45;7.30;99.90
6792;DHT22;3433;48.730;9.108;2023-12-20T14:33:32;7.30;99.90
6792;DHT22;3433;48.730;9.108;2023-12-20T14:36:21;7.30;99.90
6792;DHT22;3433;48.730;9.108;2023-12-20T14:39:08;7.30;99.90
6792;DHT22;3433;48.730;9.108;2023-12-20T14:42:00;7.30;99.90
6792;DHT22;3433;48.730;9.108;2023-12-20T14:44:47;7.40;99.90
6792;DHT22;3433;48.730;9.108;2023-12-20T14:47:34;7.40;99.90
6792;DHT22;3433;48.730;9.108;2023-12-20T14:50:21;7.40;99.90
6792;DHT22;3433;48.730;9.108;2023-12-20T14:53:09;7.30;99.90
6792;DHT22;3433;48.730;9.108;2023-12-20T14:55:56;7.40;99.90
6792;DHT22;3433;48.730;9.108;2023-12-20T14:58:45;7.30;99.90
6792;DHT22;3433;48.730;9.108;2023-12-20T15:01:33;7.30;99.90
6792;DHT22;3433;48.730;9.108;2023-12-20T15:04:20;7.10;99.90
6792;DHT22;3433;48.730;9.108;2023-12-20T15:07:15;7.00;99.90
6792;DHT22;3433;48.730;9.108;2023-12-20T15:10:03;7.20;99.90
6792;DHT22;3433;48.730;9.108;2023-12-20T15:12:50;7.00;99.90
6792;DHT22;3433;48.730;9.108;2023-12-20T15:15:39;7.10;99.90
6792;DHT22;3433;48.730;9.108;2023-12-20T15:18:26;7.20;99.90
6792;DHT22;3433;48.730;9.108;2023-12-20T15:21:14;7.10;99.90
6792;DHT22;3433;48.730;9.108;2023-12-20T15:24:02;7.10;99.90
6792;DHT22;3433;48.730;9.108;2023-12-20T15:26:59;7.10;99.90
6792;DHT22;3433;48.730;9.108;2023-12-20T15:29:46;7.10;99.90
6792;DHT22;3433;48.730;9.108;2023-12-20T15:32:36;7.10;99.90
6792;DHT22;3433;48.730;9.108;2023-12-20T15:35:24;6.80;99.90
6792;DHT22;3433;48.730;9.108;2023-12-20T15:38:12;6.80;99.90
6792;DHT22;3433;48.730;9.108;2023-12-20T15:40:59;6.80;99.90
6792;DHT22;3433;48.730;9.108;2023-12-20T15:43:48;6.90;99.90
6792;DHT22;3433;48.730;9.108;2023-12-20T15:46:35;6.80;99.90
6792;DHT22;3433;48.730;9.108;2023-12-20T15:49:23;6.80;99.90
6792;DHT22;3433;48.730;9.108;2023-12-20T15:52:11;6.60;99.90
6792;DHT22;3433;48.730;9.108;2023-12-20T15:54:58;6.70;99.90
6792;DHT22;3433;48.730;9.108;2023-12-20T15:57:45;6.70;99.90
6792;DHT22;3433;48.730;9.108;2023-12-20T16:00:32;6.70;99.90
6792;DHT22;3433;48.730;9.108;2023-12-20T16:03:19;6.70;99.90
6792;DHT22;3433;48.730;9.108;2023-12-20T16:06:09;6.70;99.90
6792;DHT22;3433;48.730;9.108;2023-12-20T16:08:56;6.70;99.90
6792;DHT22;3433;48.730;9.108;2023-12-20T16:11:43;6.70;99.90
6792;DHT22;3433;48.730;9.108;2023-12-20T16:14:30;6.70;99.90
6792;DHT22;3433;48.730;9.108;2023-12-20T16:17:17;6.80;99.90
6792;DHT22;3433;48.730;9.108;2023-12-20T16:20:07;6.80;99.90
6792;DHT22;3433;48.730;9.108;2023-12-20T16:22:56;6.90;99.90
6792;DHT22;3433;48.730;9.108;2023-12-20T16:25:43;6.80;99.90
6792;DHT22;3433;48.730;9.108;2023-12-20T16:28:30;6.80;99.90
6792;DHT22;3433;48.730;9.108;2023-12-20T16:31:17;6.90;99.90
6792;DHT22;3433;48.730;9.108;2023-12-20T16:34:05;6.80;99.90
6792;DHT22;3433;48.730;9.108;2023-12-20T16:36:53;6.90;99.90
6792;DHT22;3433;48.730;9.108;2023-12-20T16:39:41;6.80;99.90
6792;DHT22;3433;48.730;9.108;2023-12-20T16:42:28;6.80;99.90
6792;DHT22;3433;48.730;9.108;2023-12-20T16:45:16;6.80;99.90
6792;DHT22;3433;48.730;9.108;2023-12-20T16:48:04;6.70;99.90
6792;DHT22;3433;48.730;9.108;2023-12-20T16:50:51;6.70;99.90
6792;DHT22;3433;48.730;9.108;2023-12-20T16:53:38;6.70;99.90
6792;DHT22;3433;48.730;9.108;2023-12-20T16:56:27;6.80;99.90
6792;DHT22;3433;48.730;9.108;2023-12-20T16:59:14;6.60;99.90
6792;DHT22;3433;48.730;9.108;2023-12-20T17:02:01;6.50;99.90
6792;DHT22;3433;48.730;9.108;2023-12-20T17:04:49;6.60;99.90
6792;DHT22;3433;48.730;9.108;2023-12-20T17:07:36;6.60;99.90
6792;DHT22;3433;48.730;9.108;2023-12-20T17:10:24;6.50;99.90
6792;DHT22;3433;48.730;9.108;2023-12-20T17:13:12;6.40;99.90
6792;DHT22;3433;48.730;9.108;2023-12-20T17:16:00;6.40;99.90
6792;DHT22;3433;48.730;9.108;2023-12-20T17:18:47;6.50;99.90
6792;DHT22;3433;48.730;9.108;2023-12-20T17:21:35;6.40;99.90
6792;DHT22;3433;48.730;9.108;2023-12-20T17:24:22;6.30;99.90
6792;DHT22;3433;48.730;9.108;2023-12-20T17:27:09;6.20;99.90
6792;DHT22;3433;48.730;9.108;2023-12-20T17:29:58;6.30;99.90
6792;DHT22;3433;48.730;9.108;2023-12-20T17:32:46;6.40;99.90
6792;DHT22;3433;48.730;9.108;2023-12-20T17:35:34;6.20;99.90
6792;DHT22;3433;48.730;9.108;2023-12-20T17:38:21;6.30;99.90
6792;DHT22;3433;48.730;9.108;2023-12-20T17:41:09;6.20;99.90
6792;DHT22;3433;48.730;9.108;2023-12-20T17:43:56;6.00;99.90
6792;DHT22;3433;48.730;9.108;2023-12-20T17:46:46;5.90;99.90
6792;DHT22;3433;48.730;9.108;2023-12-20T17:49:33;5.90;99.90
6792;DHT22;3433;48.730;9.108;2023-12-20T17:52:20;5.90;99.90
6792;DHT22;3433;48.730;9.108;2023-12-20T17:55:08;6.00;99.90
6792;DHT22;3433;48.730;9.108;2023-12-20T17:57:55;6.10;99.90
6792;DHT22;3433;48.730;9.108;2023-12-20T18:00:42;6.00;99.90
6792;DHT22;3433;48.730;9.108;2023-12-20T18:03:31;6.10;99.90
6792;DHT22;3433;48.730;9.108;2023-12-20T18:06:18;6.10;99.90
6792;DHT22;3433;48.730;9.108;2023-12-20T18:09:05;6.10;99.90
6792;DHT22;3433;48.730;9.108;2023-12-20T18:11:52;6.00;99.90
6792;DHT22;3433;48.730;9.108;2023-12-20T18:14:39;6.00;99.90
6792;DHT22;3433;48.730;9.108;2023-12-20T18:17:27;6.00;99.90
6792;DHT22;3433;48.730;9.108;2023-12-20T18:20:15;5.90;99.90
6792;DHT22;3433;48.730;9.108;2023-12-20T18:23:03;6.00;99.90
6792;DHT22;3433;48.730;9.108;2023-12-20T18:25:50;5.90;99.90
6792;DHT22;3433;48.730;9.108;2023-12-20T18:28:39;5.80;99.90
6792;DHT22;3433;48.730;9.108;2023-12-20T18:31:26;5.90;99.90